sensor_id;sensor_type;location;lat;lon;timestamp;temperature;humidity
64869;DHT22;51349;52.424;10.840;2023-04-03T00:02:22;-0.80;99.90
64869;DHT22;51349;52.424;10.840;2023-04-03T00:07:22;-0.90;99.90
64869;DHT22;51349;52.424;10.840;2023-04-03T00:12:23;-1.10;99.90
64869;DHT22;51349;52.424;10.840;2023-04-03T00:17:23;-1.10;99.90
64869;DHT22;51349;52.424;10.840;2023-04-03T00:22:24;-1.20;99.90
64869;DHT22;51349;52.424;10.840;2023-04-03T00:27:27;-1.30;99.90
64869;DHT22;51349;52.424;10.840;2023-04-03T00:32:27;-1.40;99.90
64869;DHT22;51349;52.424;10.840;2023-04-03T00:37:28;-1.40;99.90
64869;DHT22;51349;52.424;10.840;2023-04-03T00:42:29;-1.30;99.90
64869;DHT22;51349;52.424;10.840;2023-04-03T00:47:30;-1.40;99.90
64869;DHT22;51349;52.424;10.840;2023-04-03T00:52:31;-1.30;99.90
64869;DHT22;51349;52.424;10.840;2023-04-03T00:57:32;-1.10;99.90
64869;DHT22;51349;52.424;10.840;2023-04-03T01:02:33;-1.10;99.90
64869;DHT22;51349;52.424;10.840;2023-04-03T01:07:34;-1.10;99.90
64869;DHT22;51349;52.424;10.840;2023-04-03T01:12:39;-1.30;99.90
64869;DHT22;51349;52.424;10.840;2023-04-03T01:17:47;-1.40;99.90
64869;DHT22;51349;52.424;10.840;2023-04-03T01:28:10;-1.70;99.90
64869;DHT22;51349;52.424;10.840;2023-04-03T01:33:11;-1.90;99.90
64869;DHT22;51349;52.424;10.840;2023-04-03T01:38:12;-1.90;99.90
64869;DHT22;51349;52.424;10.840;2023-04-03T01:43:12;-1.90;99.90
64869;DHT22;51349;52.424;10.840;2023-04-03T01:48:13;-1.90;99.90
64869;DHT22;51349;52.424;10.840;2023-04-03T01:53:16;-1.90;99.90
64869;DHT22;51349;52.424;10.840;2023-04-03T01:58:17;-1.90;99.90
64869;DHT22;51349;52.424;10.840;2023-04-03T02:03:17;-1.90;99.90
64869;DHT22;51349;52.424;10.840;2023-04-03T02:08:18;-2.00;99.90
64869;DHT22;51349;52.424;10.840;2023-04-03T02:13:19;-2.00;99.90
64869;DHT22;51349;52.424;10.840;2023-04-03T02:18:20;-2.10;99.90
64869;DHT22;51349;52.424;10.840;2023-04-03T02:23:21;-2.10;99.90
64869;DHT22;51349;52.424;10.840;2023-04-03T02:28:21;-2.20;99.90
64869;DHT22;51349;52.424;10.840;2023-04-03T02:33:22;-2.20;99.90
64869;DHT22;51349;52.424;10.840;2023-04-03T02:38:23;-2.20;99.90
64869;DHT22;51349;52.424;10.840;2023-04-03T02:43:24;-2.30;99.90
64869;DHT22;51349;52.424;10.840;2023-04-03T02:48:25;-2.30;99.90
64869;DHT22;51349;52.424;10.840;2023-04-03T02:53:26;-2.40;99.90
64869;DHT22;51349;52.424;10.840;2023-04-03T02:58:27;-2.50;99.90
64869;DHT22;51349;52.424;10.840;2023-04-03T03:03:30;-2.60;99.90
64869;DHT22;51349;52.424;10.840;2023-04-03T03:08:31;-2.70;99.90
64869;DHT22;51349;52.424;10.840;2023-04-03T03:13:32;-2.70;99.90
64869;DHT22;51349;52.424;10.840;2023-04-03T03:18:33;-2.80;99.90
64869;DHT22;51349;52.424;10.840;2023-04-03T03:23:34;-2.90;99.90
64869;DHT22;51349;52.424;10.840;2023-04-03T03:28:36;-2.90;99.90
64869;DHT22;51349;52.424;10.840;2023-04-03T03:33:38;-2.90;99.90
64869;DHT22;51349;52.424;10.840;2023-04-03T03:38:38;-2.80;99.90
64869;DHT22;51349;52.424;10.840;2023-04-03T03:43:39;-2.90;99.90
64869;DHT22;51349;52.424;10.840;2023-04-03T03:48:40;-3.00;99.90
64869;DHT22;51349;52.424;10.840;2023-04-03T03:53:40;-3.00;99.90
64869;DHT22;51349;52.424;10.840;2023-04-03T03:58:41;-3.20;99.90
64869;DHT22;51349;52.424;10.840;2023-04-03T04:03:42;-3.20;99.90
64869;DHT22;51349;52.424;10.840;2023-04-03T04:08:42;-3.20;99.90
64869;DHT22;51349;52.424;10.840;2023-04-03T04:13:43;-3.30;99.90
64869;DHT22;51349;52.424;10.840;2023-04-03T04:18:44;-3.40;99.90
64869;DHT22;51349;52.424;10.840;2023-04-03T04:23:44;-3.30;99.90
64869;DHT22;51349;52.424;10.840;2023-04-03T04:28:45;-3.40;99.90
64869;DHT22;51349;52.424;10.840;2023-04-03T04:33:47;-3.60;99.90
64869;DHT22;51349;52.424;10.840;2023-04-03T04:38:47;-3.70;99.90
64869;DHT22;51349;52.424;10.840;2023-04-03T04:43:49;-3.70;99.90
64869;DHT22;51349;52.424;10.840;2023-04-03T04:48:50;-3.60;99.90
64869;DHT22;51349;52.424;10.840;2023-04-03T04:53:51;-3.40;99.90
64869;DHT22;51349;52.424;10.840;2023-04-03T04:58:51;-3.50;99.90
64869;DHT22;51349;52.424;10.840;2023-04-03T05:03:52;-3.50;99.90
64869;DHT22;51349;52.424;10.840;2023-04-03T05:08:53;-3.40;99.90
64869;DHT22;51349;52.424;10.840;2023-04-03T05:13:53;-3.50;99.90
64869;DHT22;51349;52.424;10.840;2023-04-03T05:18:54;-3.40;99.90
64869;DHT22;51349;52.424;10.840;2023-04-03T05:23:54;-3.40;99.90
64869;DHT22;51349;52.424;10.840;2023-04-03T05:28:55;-3.30;99.90
64869;DHT22;51349;52.424;10.840;2023-04-03T05:33:57;-3.40;99.90
64869;DHT22;51349;52.424;10.840;2023-04-03T05:38:57;-3.50;99.90
64869;DHT22;51349;52.424;10.840;2023-04-03T05:43:58;-3.30;99.90
64869;DHT22;51349;52.424;10.840;2023-04-03T05:48:59;-3.10;99.90
64869;DHT22;51349;52.424;10.840;2023-04-03T05:54:19;-2.90;99.90
64869;DHT22;51349;52.424;10.840;2023-04-03T05:59:21;-2.70;99.90
64869;DHT22;51349;52.424;10.840;2023-04-03T06:04:22;-2.80;99.90
64869;DHT22;51349;52.424;10.840;2023-04-03T06:09:24;-2.60;99.90
64869;DHT22;51349;52.424;10.840;2023-04-03T06:14:26;-2.50;99.90
64869;DHT22;51349;52.424;10.840;2023-04-03T06:19:27;-2.20;99.90
64869;DHT22;51349;52.424;10.840;2023-04-03T06:24:29;-2.20;99.90
64869;DHT22;51349;52.424;10.840;2023-04-03T06:29:30;-1.90;99.90
64869;DHT22;51349;52.424;10.840;2023-04-03T06:34:31;-1.80;99.90
64869;DHT22;51349;52.424;10.840;2023-04-03T06:39:32;-1.50;99.90
64869;DHT22;51349;52.424;10.840;2023-04-03T06:44:33;-1.30;99.90
64869;DHT22;51349;52.424;10.840;2023-04-03T06:49:35;-0.90;99.90
64869;DHT22;51349;52.424;10.840;2023-04-03T06:54:37;-0.70;99.90
64869;DHT22;51349;52.424;10.840;2023-04-03T06:59:38;-0.50;99.90
64869;DHT22;51349;52.424;10.840;2023-04-03T07:04:39;-0.40;99.90
64869;DHT22;51349;52.424;10.840;2023-04-03T07:09:40;0.00;99.90
64869;DHT22;51349;52.424;10.840;2023-04-03T07:14:41;0.30;99.90
64869;DHT22;51349;52.424;10.840;2023-04-03T07:19:41;0.50;99.90
64869;DHT22;51349;52.424;10.840;2023-04-03T07:24:42;0.80;99.90
64869;DHT22;51349;52.424;10.840;2023-04-03T07:29:43;1.20;99.90
64869;DHT22;51349;52.424;10.840;2023-04-03T07:34:44;1.70;99.90
64869;DHT22;51349;52.424;10.840;2023-04-03T07:39:45;2.00;99.90
64869;DHT22;51349;52.424;10.840;2023-04-03T07:44:45;2.50;99.90
64869;DHT22;51349;52.424;10.840;2023-04-03T07:49:46;2.90;99.90
64869;DHT22;51349;52.424;10.840;2023-04-03T07:54:47;3.30;99.90
64869;DHT22;51349;52.424;10.840;2023-04-03T07:59:48;3.70;99.90
64869;DHT22;51349;52.424;10.840;2023-04-03T08:04:48;4.30;99.90
64869;DHT22;51349;52.424;10.840;2023-04-03T08:09:49;4.60;99.90
64869;DHT22;51349;52.424;10.840;2023-04-03T08:14:50;5.00;99.90
64869;DHT22;51349;52.424;10.840;2023-04-03T08:19:51;5.30;99.90
64869;DHT22;51349;52.424;10.840;2023-04-03T08:24:52;6.60;99.90
64869;DHT22;51349;52.424;10.840;2023-04-03T08:29:52;6.70;99.90
64869;DHT22;51349;52.424;10.840;2023-04-03T08:34:53;6.50;99.90
64869;DHT22;51349;52.424;10.840;2023-04-03T08:39:54;6.80;99.90
64869;DHT22;51349;52.424;10.840;2023-04-03T08:45:06;7.50;99.90
64869;DHT22;51349;52.424;10.840;2023-04-03T08:50:17;7.00;99.90
64869;DHT22;51349;52.424;10.840;2023-04-03T08:55:31;6.90;99.90
64869;DHT22;51349;52.424;10.840;2023-04-03T09:00:49;9.10;99.90
64869;DHT22;51349;52.424;10.840;2023-04-03T09:06:13;9.00;99.90
64869;DHT22;51349;52.424;10.840;2023-04-03T09:11:31;6.70;99.90
64869;DHT22;51349;52.424;10.840;2023-04-03T09:21:46;6.70;99.90
64869;DHT22;51349;52.424;10.840;2023-04-03T09:27:03;6.30;99.90
64869;DHT22;51349;52.424;10.840;2023-04-03T09:32:35;6.40;99.90
64869;DHT22;51349;52.424;10.840;2023-04-03T09:37:38;5.90;99.90
64869;DHT22;51349;52.424;10.840;2023-04-03T09:42:40;5.70;99.90
64869;DHT22;51349;52.424;10.840;2023-04-03T09:47:42;5.80;99.90
64869;DHT22;51349;52.424;10.840;2023-04-03T09:52:49;5.50;99.90
64869;DHT22;51349;52.424;10.840;2023-04-03T09:57:52;7.80;99.90
64869;DHT22;51349;52.424;10.840;2023-04-03T10:02:57;9.30;98.60
64869;DHT22;51349;52.424;10.840;2023-04-03T10:13:20;10.70;92.90
64869;DHT22;51349;52.424;10.840;2023-04-03T10:23:49;9.00;91.40
64869;DHT22;51349;52.424;10.840;2023-04-03T10:50:22;6.30;90.90
64869;DHT22;51349;52.424;10.840;2023-04-03T10:55:37;6.40;91.40
64869;DHT22;51349;52.424;10.840;2023-04-03T11:00:47;8.10;88.20
64869;DHT22;51349;52.424;10.840;2023-04-03T11:05:52;6.60;88.60
64869;DHT22;51349;52.424;10.840;2023-04-03T11:11:06;6.30;90.70
64869;DHT22;51349;52.424;10.840;2023-04-03T11:16:08;9.00;90.40
64869;DHT22;51349;52.424;10.840;2023-04-03T11:21:41;7.50;89.60
64869;DHT22;51349;52.424;10.840;2023-04-03T11:26:44;7.00;89.30
64869;DHT22;51349;52.424;10.840;2023-04-03T11:37:31;11.50;89.10
64869;DHT22;51349;52.424;10.840;2023-04-03T11:42:39;10.30;83.50
64869;DHT22;51349;52.424;10.840;2023-04-03T11:47:49;11.20;74.10
64869;DHT22;51349;52.424;10.840;2023-04-03T12:03:01;12.20;77.30
64869;DHT22;51349;52.424;10.840;2023-04-03T12:08:38;9.20;78.10
64869;DHT22;51349;52.424;10.840;2023-04-03T12:24:28;8.40;79.70
64869;DHT22;51349;52.424;10.840;2023-04-03T12:45:56;12.00;69.00
64869;DHT22;51349;52.424;10.840;2023-04-03T12:51:00;11.80;70.70
64869;DHT22;51349;52.424;10.840;2023-04-03T12:56:25;9.20;70.00
64869;DHT22;51349;52.424;10.840;2023-04-03T13:01:26;9.50;74.10
64869;DHT22;51349;52.424;10.840;2023-04-03T13:06:32;10.50;69.70
64869;DHT22;51349;52.424;10.840;2023-04-03T13:11:40;10.30;69.00
64869;DHT22;51349;52.424;10.840;2023-04-03T13:16:42;8.70;72.50
64869;DHT22;51349;52.424;10.840;2023-04-03T13:21:59;9.30;73.80
64869;DHT22;51349;52.424;10.840;2023-04-03T13:27:02;10.80;71.90
64869;DHT22;51349;52.424;10.840;2023-04-03T13:32:04;9.00;70.70
64869;DHT22;51349;52.424;10.840;2023-04-03T13:37:05;7.90;73.00
64869;DHT22;51349;52.424;10.840;2023-04-03T13:42:23;9.60;74.60
64869;DHT22;51349;52.424;10.840;2023-04-03T13:47:24;9.20;73.70
64869;DHT22;51349;52.424;10.840;2023-04-03T13:57:32;7.90;75.30
64869;DHT22;51349;52.424;10.840;2023-04-03T14:02:34;8.30;78.40
64869;DHT22;51349;52.424;10.840;2023-04-03T14:07:35;9.70;76.30
64869;DHT22;51349;52.424;10.840;2023-04-03T14:12:37;9.80;70.70
64869;DHT22;51349;52.424;10.840;2023-04-03T14:17:39;10.40;74.90
64869;DHT22;51349;52.424;10.840;2023-04-03T14:22:40;8.80;69.70
64869;DHT22;51349;52.424;10.840;2023-04-03T14:27:44;9.10;73.80
64869;DHT22;51349;52.424;10.840;2023-04-03T14:32:45;10.30;73.60
64869;DHT22;51349;52.424;10.840;2023-04-03T14:37:46;9.00;65.50
64869;DHT22;51349;52.424;10.840;2023-04-03T14:42:48;11.00;71.40
64869;DHT22;51349;52.424;10.840;2023-04-03T14:47:51;9.20;69.30
64869;DHT22;51349;52.424;10.840;2023-04-03T14:52:55;8.50;71.70
64869;DHT22;51349;52.424;10.840;2023-04-03T14:57:56;7.80;72.90
64869;DHT22;51349;52.424;10.840;2023-04-03T15:02:57;8.60;77.80
64869;DHT22;51349;52.424;10.840;2023-04-03T15:07:58;11.80;73.50
64869;DHT22;51349;52.424;10.840;2023-04-03T15:13:00;12.50;66.60
64869;DHT22;51349;52.424;10.840;2023-04-03T15:18:01;14.20;66.60
64869;DHT22;51349;52.424;10.840;2023-04-03T15:23:02;12.50;59.70
64869;DHT22;51349;52.424;10.840;2023-04-03T15:28:03;11.10;64.30
64869;DHT22;51349;52.424;10.840;2023-04-03T15:33:03;9.50;65.30
64869;DHT22;51349;52.424;10.840;2023-04-03T15:38:04;8.70;65.50
64869;DHT22;51349;52.424;10.840;2023-04-03T15:43:06;10.00;70.50
64869;DHT22;51349;52.424;10.840;2023-04-03T15:48:08;10.40;66.30
64869;DHT22;51349;52.424;10.840;2023-04-03T15:53:09;12.40;66.40
64869;DHT22;51349;52.424;10.840;2023-04-03T15:58:10;12.00;59.70
64869;DHT22;51349;52.424;10.840;2023-04-03T16:03:16;11.10;60.20
64869;DHT22;51349;52.424;10.840;2023-04-03T16:08:17;8.80;64.30
64869;DHT22;51349;52.424;10.840;2023-04-03T16:13:18;9.60;65.00
64869;DHT22;51349;52.424;10.840;2023-04-03T16:18:19;9.50;70.20
64869;DHT22;51349;52.424;10.840;2023-04-03T16:23:25;12.10;64.00
64869;DHT22;51349;52.424;10.840;2023-04-03T16:28:26;10.90;62.60
64869;DHT22;51349;52.424;10.840;2023-04-03T16:33:27;10.70;64.10
64869;DHT22;51349;52.424;10.840;2023-04-03T16:38:30;9.80;64.70
64869;DHT22;51349;52.424;10.840;2023-04-03T16:43:32;8.70;66.00
64869;DHT22;51349;52.424;10.840;2023-04-03T16:48:33;8.30;67.30
64869;DHT22;51349;52.424;10.840;2023-04-03T16:53:34;7.80;68.50
64869;DHT22;51349;52.424;10.840;2023-04-03T16:58:36;8.00;69.90
64869;DHT22;51349;52.424;10.840;2023-04-03T17:03:36;7.90;67.20
64869;DHT22;51349;52.424;10.840;2023-04-03T17:08:37;7.50;68.40
64869;DHT22;51349;52.424;10.840;2023-04-03T17:13:38;7.10;70.80
64869;DHT22;51349;52.424;10.840;2023-04-03T17:18:39;6.70;71.60
64869;DHT22;51349;52.424;10.840;2023-04-03T17:23:42;6.40;72.10
64869;DHT22;51349;52.424;10.840;2023-04-03T17:28:45;6.00;72.30
64869;DHT22;51349;52.424;10.840;2023-04-03T17:33:45;5.90;74.60
64869;DHT22;51349;52.424;10.840;2023-04-03T17:38:46;5.80;74.90
64869;DHT22;51349;52.424;10.840;2023-04-03T17:43:48;5.70;76.00
64869;DHT22;51349;52.424;10.840;2023-04-03T17:48:49;5.50;76.90
64869;DHT22;51349;52.424;10.840;2023-04-03T17:53:49;5.20;77.50
64869;DHT22;51349;52.424;10.840;2023-04-03T17:58:50;5.10;78.20
64869;DHT22;51349;52.424;10.840;2023-04-03T18:03:53;4.80;79.50
64869;DHT22;51349;52.424;10.840;2023-04-03T18:08:57;4.60;79.50
64869;DHT22;51349;52.424;10.840;2023-04-03T18:14:02;4.20;81.10
64869;DHT22;51349;52.424;10.840;2023-04-03T18:19:04;4.00;83.60
64869;DHT22;51349;52.424;10.840;2023-04-03T18:24:11;4.00;84.70
64869;DHT22;51349;52.424;10.840;2023-04-03T18:29:13;3.90;85.60
64869;DHT22;51349;52.424;10.840;2023-04-03T18:34:15;3.60;87.50
64869;DHT22;51349;52.424;10.840;2023-04-03T18:39:16;3.40;88.70
64869;DHT22;51349;52.424;10.840;2023-04-03T18:44:19;3.30;88.00
64869;DHT22;51349;52.424;10.840;2023-04-03T18:49:20;3.10;88.30
64869;DHT22;51349;52.424;10.840;2023-04-03T18:54:21;3.20;90.80
64869;DHT22;51349;52.424;10.840;2023-04-03T18:59:21;3.00;90.50
64869;DHT22;51349;52.424;10.840;2023-04-03T19:04:23;2.80;91.00
64869;DHT22;51349;52.424;10.840;2023-04-03T19:09:24;2.70;91.80
64869;DHT22;51349;52.424;10.840;2023-04-03T19:14:25;2.50;91.70
64869;DHT22;51349;52.424;10.840;2023-04-03T19:19:26;2.40;92.10
64869;DHT22;51349;52.424;10.840;2023-04-03T19:24:27;2.20;92.30
64869;DHT22;51349;52.424;10.840;2023-04-03T19:29:27;1.90;94.30
64869;DHT22;51349;52.424;10.840;2023-04-03T19:34:28;1.70;94.20
64869;DHT22;51349;52.424;10.840;2023-04-03T19:39:31;1.60;95.00
64869;DHT22;51349;52.424;10.840;2023-04-03T19:44:35;1.40;95.40
64869;DHT22;51349;52.424;10.840;2023-04-03T19:49:36;1.10;97.90
64869;DHT22;51349;52.424;10.840;2023-04-03T19:54:37;1.00;99.10
64869;DHT22;51349;52.424;10.840;2023-04-03T19:59:37;0.80;99.90
64869;DHT22;51349;52.424;10.840;2023-04-03T20:04:38;0.70;99.90
64869;DHT22;51349;52.424;10.840;2023-04-03T20:09:39;0.60;99.90
64869;DHT22;51349;52.424;10.840;2023-04-03T20:14:39;0.50;99.90
64869;DHT22;51349;52.424;10.840;2023-04-03T20:19:40;0.30;99.90
64869;DHT22;51349;52.424;10.840;2023-04-03T20:24:41;0.20;99.90
64869;DHT22;51349;52.424;10.840;2023-04-03T20:29:42;0.10;99.90
64869;DHT22;51349;52.424;10.840;2023-04-03T20:34:42;0.10;99.90
64869;DHT22;51349;52.424;10.840;2023-04-03T20:39:44;0.10;99.90
64869;DHT22;51349;52.424;10.840;2023-04-03T20:44:44;0.00;99.90
64869;DHT22;51349;52.424;10.840;2023-04-03T20:49:45;-0.20;99.90
64869;DHT22;51349;52.424;10.840;2023-04-03T20:54:46;-0.40;99.90
64869;DHT22;51349;52.424;10.840;2023-04-03T20:59:46;-0.50;99.90
64869;DHT22;51349;52.424;10.840;2023-04-03T21:04:53;-0.50;99.90
64869;DHT22;51349;52.424;10.840;2023-04-03T21:20:46;-0.80;99.90
64869;DHT22;51349;52.424;10.840;2023-04-03T21:25:47;-0.90;99.90
64869;DHT22;51349;52.424;10.840;2023-04-03T21:30:48;-0.90;99.90
64869;DHT22;51349;52.424;10.840;2023-04-03T21:35:49;-1.00;99.90
64869;DHT22;51349;52.424;10.840;2023-04-03T21:40:57;-1.00;99.90
64869;DHT22;51349;52.424;10.840;2023-04-03T21:45:58;-1.10;99.90
64869;DHT22;51349;52.424;10.840;2023-04-03T21:51:05;-1.10;99.90
64869;DHT22;51349;52.424;10.840;2023-04-03T21:56:06;-1.20;99.90
64869;DHT22;51349;52.424;10.840;2023-04-03T22:06:10;-1.40;99.90
64869;DHT22;51349;52.424;10.840;2023-04-03T22:11:13;-1.40;99.90
64869;DHT22;51349;52.424;10.840;2023-04-03T22:16:14;-1.50;99.90
64869;DHT22;51349;52.424;10.840;2023-04-03T22:21:15;-1.60;99.90
64869;DHT22;51349;52.424;10.840;2023-04-03T22:26:15;-1.60;99.90
64869;DHT22;51349;52.424;10.840;2023-04-03T22:31:16;-1.60;99.90
64869;DHT22;51349;52.424;10.840;2023-04-03T22:36:17;-1.70;99.90
64869;DHT22;51349;52.424;10.840;2023-04-03T22:41:18;-1.80;99.90
64869;DHT22;51349;52.424;10.840;2023-04-03T22:46:18;-1.80;99.90
64869;DHT22;51349;52.424;10.840;2023-04-03T22:51:20;-1.90;99.90
64869;DHT22;51349;52.424;10.840;2023-04-03T22:56:20;-1.90;99.90
64869;DHT22;51349;52.424;10.840;2023-04-03T23:01:21;-1.90;99.90
64869;DHT22;51349;52.424;10.840;2023-04-03T23:06:23;-2.00;99.90
64869;DHT22;51349;52.424;10.840;2023-04-03T23:11:23;-2.10;99.90
64869;DHT22;51349;52.424;10.840;2023-04-03T23:16:24;-2.20;99.90
64869;DHT22;51349;52.424;10.840;2023-04-03T23:21:25;-2.20;99.90
64869;DHT22;51349;52.424;10.840;2023-04-03T23:26:25;-2.20;99.90
64869;DHT22;51349;52.424;10.840;2023-04-03T23:31:26;-2.30;99.90
64869;DHT22;51349;52.424;10.840;2023-04-03T23:36:27;-2.30;99.90
64869;DHT22;51349;52.424;10.840;2023-04-03T23:41:30;-2.50;99.90
64869;DHT22;51349;52.424;10.840;2023-04-03T23:46:31;-2.50;99.90
64869;DHT22;51349;52.424;10.840;2023-04-03T23:51:32;-2.50;99.90
64869;DHT22;51349;52.424;10.840;2023-04-03T23:56:33;-2.60;99.90
